Time;durP1;ratioP1;P1;durP2;ratioP2;P2;SDS_P1;SDS_P2;PMS_P1;PMS_P2;Temp;Humidity;BMP_temperature;BMP_pressure;BME280_temperature;BME280_humidity;BME280_pressure;Samples;Min_cycle;Max_cycle;Signal;HPM_P1;HPM_P2
2022/12/12 00:00:48;;;;;;;28.80;17.77;;;3.20;92.60;;;;;;5110146;28;20042;-57
2022/12/12 00:03:13;;;;;;;30.58;18.33;;;3.20;92.50;;;;;;5110173;28;20032;-56
2022/12/12 00:05:39;;;;;;;27.25;18.35;;;3.20;92.50;;;;;;5128589;28;20069;-56
2022/12/12 00:08:04;;;;;;;32.05;19.10;;;3.20;92.50;;;;;;5109911;28;20027;-57
2022/12/12 00:10:30;;;;;;;29.17;18.23;;;3.20;92.50;;;;;;5110187;28;20023;-56
2022/12/12 00:12:55;;;;;;;31.40;19.65;;;3.20;92.50;;;;;;5110015;28;20175;-57
2022/12/12 00:15:21;;;;;;;29.00;19.00;;;3.20;92.50;;;;;;5109846;28;20102;-57
2022/12/12 00:17:46;;;;;;;27.85;17.85;;;3.20;92.50;;;;;;5109967;28;20035;-57
2022/12/12 00:20:12;;;;;;;26.23;17.80;;;3.10;92.50;;;;;;5128149;28;20030;-57
2022/12/12 00:22:37;;;;;;;25.77;17.50;;;3.10;92.50;;;;;;5127763;28;20035;-56
2022/12/12 00:25:03;;;;;;;30.48;18.73;;;3.10;92.50;;;;;;5091950;28;20036;-57
2022/12/12 00:27:31;;;;;;;29.95;18.58;;;3.10;92.50;;;;;;5109517;28;20053;-57
2022/12/12 00:29:56;;;;;;;29.52;18.35;;;3.10;92.50;;;;;;5109818;28;20106;-57
2022/12/12 00:32:22;;;;;;;26.63;18.10;;;3.10;92.50;;;;;;5109705;28;20136;-57
2022/12/12 00:34:47;;;;;;;30.48;19.08;;;3.10;92.50;;;;;;5127752;28;20027;-57
2022/12/12 00:37:13;;;;;;;28.17;17.90;;;3.10;92.50;;;;;;5109521;28;20056;-57
2022/12/12 00:39:38;;;;;;;27.25;17.98;;;3.10;92.50;;;;;;5109577;28;20035;-57
2022/12/12 00:42:04;;;;;;;28.02;18.80;;;3.10;92.80;;;;;;5127766;28;20035;-57
2022/12/12 00:44:29;;;;;;;32.17;18.40;;;3.10;92.50;;;;;;5109232;28;20032;-57
2022/12/12 00:46:55;;;;;;;26.63;17.17;;;3.10;92.50;;;;;;5127639;28;20063;-57
2022/12/12 00:49:20;;;;;;;31.17;19.45;;;3.10;92.50;;;;;;5109367;28;20031;-57
2022/12/12 00:51:46;;;;;;;27.35;18.83;;;3.10;92.50;;;;;;5109032;28;20465;-56
2022/12/12 00:54:12;;;;;;;33.42;18.23;;;3.10;92.50;;;;;;5109153;28;20426;-57
2022/12/12 00:56:38;;;;;;;33.90;18.63;;;3.10;92.50;;;;;;5109104;28;20127;-56
2022/12/12 00:59:03;;;;;;;26.00;17.88;;;3.00;92.50;;;;;;5092269;28;20057;-56
2022/12/12 01:01:30;;;;;;;30.73;19.00;;;3.00;92.50;;;;;;5108951;28;20131;-56
2022/12/12 01:03:55;;;;;;;27.63;19.08;;;3.00;92.50;;;;;;5109044;28;20035;-56
2022/12/12 01:06:21;;;;;;;27.58;17.98;;;3.00;92.50;;;;;;5108915;28;20057;-57
2022/12/12 01:08:46;;;;;;;32.83;18.90;;;3.00;92.50;;;;;;5091907;28;20024;-57
2022/12/12 01:11:12;;;;;;;31.10;19.23;;;3.00;92.50;;;;;;5108941;28;20031;-57
2022/12/12 01:13:38;;;;;;;25.48;17.95;;;3.00;92.50;;;;;;5126943;28;20026;-56
2022/12/12 01:16:04;;;;;;;25.85;18.10;;;3.00;92.60;;;;;;5108839;28;20059;-57
2022/12/12 01:18:30;;;;;;;27.88;18.70;;;3.00;92.60;;;;;;5125839;28;20028;-57
2022/12/12 01:20:55;;;;;;;26.42;18.63;;;3.00;92.60;;;;;;5108642;28;20041;-57
2022/12/12 01:23:21;;;;;;;28.92;18.95;;;3.00;92.60;;;;;;5108747;28;20031;-57
2022/12/12 01:25:47;;;;;;;23.45;17.45;;;3.00;92.60;;;;;;5108577;28;20031;-57
2022/12/12 01:28:12;;;;;;;27.85;19.48;;;3.00;92.50;;;;;;5108746;28;20449;-57
2022/12/12 01:30:38;;;;;;;29.25;19.27;;;3.00;92.50;;;;;;5126885;28;20026;-57
2022/12/12 01:33:03;;;;;;;27.23;18.70;;;3.00;92.50;;;;;;5108356;28;20032;-57
2022/12/12 01:35:30;;;;;;;28.08;18.88;;;3.00;92.50;;;;;;5108009;28;20047;-57
2022/12/12 01:37:55;;;;;;;26.83;19.38;;;3.00;92.50;;;;;;5108369;28;20027;-57
2022/12/12 01:40:23;;;;;;;25.42;17.30;;;3.00;92.60;;;;;;5091242;28;20039;-57
2022/12/12 01:42:49;;;;;;;27.70;19.42;;;3.00;92.60;;;;;;5126698;28;20053;-57
2022/12/12 01:45:52;;;;;;;28.02;19.50;;;2.90;92.50;;;;;;5108257;28;20031;-57
2022/12/12 01:48:18;;;;;;;30.95;19.33;;;3.00;92.60;;;;;;5126415;28;20051;-56
2022/12/12 01:50:44;;;;;;;26.90;19.30;;;3.00;92.50;;;;;;5107808;28;20084;-57
2022/12/12 01:53:10;;;;;;;25.95;19.40;;;3.00;92.60;;;;;;5107818;28;20040;-56
2022/12/12 01:55:36;;;;;;;28.88;18.15;;;3.00;92.50;;;;;;5107947;28;20130;-57
2022/12/12 01:58:01;;;;;;;31.08;19.27;;;2.90;92.50;;;;;;5107775;28;20127;-56
2022/12/12 02:00:27;;;;;;;29.48;19.50;;;2.90;92.50;;;;;;5108099;28;20196;-57
2022/12/12 02:02:54;;;;;;;29.25;19.42;;;2.90;92.80;;;;;;5126393;28;20403;-57
2022/12/12 02:05:20;;;;;;;29.02;19.08;;;2.90;92.50;;;;;;5108402;28;20031;-57
2022/12/12 02:07:45;;;;;;;25.20;19.13;;;2.90;92.50;;;;;;5126318;28;20035;-57
2022/12/12 02:10:11;;;;;;;26.40;18.60;;;2.90;92.50;;;;;;5108755;28;20141;-57
2022/12/12 02:12:37;;;;;;;28.75;18.27;;;2.90;92.50;;;;;;5107917;28;20024;-57
2022/12/12 02:15:03;;;;;;;30.17;20.23;;;2.90;92.50;;;;;;5107845;28;20024;-57
2022/12/12 02:17:41;;;;;;;29.05;19.60;;;2.90;92.50;;;;;;5107550;28;20034;-57
2022/12/12 02:20:21;;;;;;;26.15;19.10;;;3.00;92.50;;;;;;5107579;28;20036;-57
2022/12/12 02:23:13;;;;;;;26.25;18.52;;;2.90;92.50;;;;;;5107676;28;20107;-57
2022/12/12 02:26:09;;;;;;;27.65;19.15;;;2.90;92.50;;;;;;5107431;28;20052;-57
2022/12/12 02:29:13;;;;;;;27.60;18.45;;;2.90;92.50;;;;;;5125770;28;20039;-57
2022/12/12 02:31:51;;;;;;;26.63;19.02;;;2.90;92.40;;;;;;5122440;28;20080;-57
2022/12/12 02:34:39;;;;;;;24.30;17.95;;;2.90;92.50;;;;;;5107447;28;20031;-57
2022/12/12 02:37:09;;;;;;;25.45;18.73;;;2.80;92.50;;;;;;5107265;28;20031;-57
2022/12/12 02:39:45;;;;;;;25.35;18.38;;;2.90;92.50;;;;;;5107674;28;20039;-56
2022/12/12 02:42:28;;;;;;;28.08;18.90;;;2.90;92.50;;;;;;5107285;28;20028;-57
2022/12/12 02:44:58;;;;;;;29.20;18.73;;;2.90;92.80;;;;;;5107163;28;20038;-57
2022/12/12 02:47:31;;;;;;;26.35;18.73;;;2.90;92.40;;;;;;5106470;28;20088;-55
2022/12/12 02:50:12;;;;;;;29.42;19.38;;;2.90;92.40;;;;;;5107175;28;20077;-56
2022/12/12 02:52:37;;;;;;;25.90;19.35;;;2.90;92.40;;;;;;5106920;28;20028;-56
2022/12/12 02:55:05;;;;;;;27.83;18.27;;;2.80;92.40;;;;;;5107119;28;20074;-57
2022/12/12 02:57:32;;;;;;;25.95;17.77;;;2.90;92.50;;;;;;5106997;28;20035;-57
2022/12/12 03:00:09;;;;;;;26.02;19.05;;;2.80;92.70;;;;;;5107266;28;20105;-57
2022/12/12 03:02:50;;;;;;;27.08;18.58;;;2.80;92.50;;;;;;5125487;28;20031;-57
2022/12/12 03:08:37;;;;;;;26.00;17.98;;;2.80;92.50;;;;;;5125197;28;20106;-57
2022/12/12 03:11:10;;;;;;;28.25;19.33;;;2.80;92.50;;;;;;5125276;28;20023;-57
2022/12/12 03:14:16;;;;;;;26.52;19.27;;;2.80;92.40;;;;;;5107462;28;20023;-57
2022/12/12 03:16:58;;;;;;;;;;;2.80;92.40;;;;;;5107192;28;20108;-56
2022/12/12 03:19:28;;;;;;;27.58;17.98;;;2.80;92.40;;;;;;5123508;28;19907;-57
2022/12/12 03:22:09;;;;;;;27.35;17.95;;;2.80;92.30;;;;;;5106866;28;20074;-57
2022/12/12 03:24:39;;;;;;;24.30;18.10;;;2.70;92.40;;;;;;5089762;28;20099;-57
2022/12/12 03:27:09;;;;;;;23.27;17.75;;;2.70;92.40;;;;;;5106642;28;20023;-57
2022/12/12 03:29:45;;;;;;;29.85;19.02;;;2.70;92.50;;;;;;5106619;28;20028;-56
2022/12/12 03:32:16;;;;;;;30.27;18.63;;;2.80;92.50;;;;;;5106886;28;20102;-55
2022/12/12 03:34:43;;;;;;;28.25;18.35;;;2.70;92.40;;;;;;5106593;28;20087;-57
2022/12/12 03:37:25;;;;;;;24.17;16.67;;;2.70;92.40;;;;;;5089598;28;20035;-57
2022/12/12 03:40:06;;;;;;;30.23;18.45;;;2.70;92.40;;;;;;5106654;28;20116;-57
2022/12/12 03:42:43;;;;;;;25.75;19.48;;;2.70;92.40;;;;;;5106559;28;20036;-57
2022/12/12 03:45:33;;;;;;;29.38;19.25;;;2.70;92.40;;;;;;5107541;28;20034;-57
2022/12/12 03:48:04;;;;;;;27.63;19.02;;;2.70;92.40;;;;;;5106584;28;20039;-56
2022/12/12 03:50:32;;;;;;;26.73;19.23;;;2.70;92.40;;;;;;5106643;28;20035;-56
2022/12/12 03:53:07;;;;;;;26.55;18.92;;;2.70;92.40;;;;;;5089560;28;20389;-57
2022/12/12 03:56:07;;;;;;;18.73;13.82;;;2.70;92.40;;;;;;5125008;28;21120;-57
2022/12/12 03:58:48;;;;;;;23.75;17.75;;;2.70;92.30;;;;;;5093632;28;20039;-57
2022/12/12 04:01:13;;;;;;;25.63;17.95;;;2.70;92.40;;;;;;5110202;28;20051;-57
2022/12/12 04:03:59;;;;;;;23.63;18.10;;;2.70;92.40;;;;;;5110301;28;20027;-57
2022/12/12 04:06:34;;;;;;;26.63;17.67;;;2.70;92.40;;;;;;5110095;28;20023;-57
2022/12/12 04:15:33;;;;;;;29.70;18.40;;;2.70;92.50;;;;;;5114666;28;20089;-56
2022/12/12 04:18:23;;;;;;;27.42;20.02;;;2.70;92.40;;;;;;5126122;28;20112;-57
2022/12/12 04:24:21;;;;;;;27.85;19.08;;;2.70;92.40;;;;;;5114359;28;20035;-56
2022/12/12 04:26:51;;;;;;;25.55;18.83;;;2.60;92.40;;;;;;5109578;28;20055;-56
2022/12/12 04:29:38;;;;;;;27.02;19.33;;;2.60;92.40;;;;;;5128051;28;20092;-56
2022/12/12 04:32:17;;;;;;;28.77;19.60;;;2.60;92.40;;;;;;5128229;28;20077;-57
2022/12/12 04:34:56;;;;;;;25.45;18.48;;;2.70;92.40;;;;;;5110189;28;20096;-57
2022/12/12 04:37:30;;;;;;;24.17;18.05;;;2.60;92.40;;;;;;5092582;28;20023;-56
2022/12/12 04:39:57;;;;;;;26.27;18.85;;;2.60;92.40;;;;;;5093419;28;20032;-57
2022/12/12 04:42:24;;;;;;;26.25;19.30;;;2.60;92.40;;;;;;5092462;28;20031;-57
2022/12/12 04:44:51;;;;;;;27.38;18.67;;;2.60;92.40;;;;;;5092559;28;20031;-56
2022/12/12 04:47:16;;;;;;;25.30;18.38;;;2.60;92.30;;;;;;5109010;28;20039;-57
2022/12/12 04:49:43;;;;;;;26.70;19.42;;;2.60;92.40;;;;;;5092250;28;20121;-56
2022/12/12 04:52:10;;;;;;;25.45;18.92;;;2.60;92.30;;;;;;5109105;28;20024;-56
2022/12/12 04:55:05;;;;;;;22.92;17.00;;;2.60;92.40;;;;;;5109304;28;20103;-57
2022/12/12 04:57:38;;;;;;;26.95;19.15;;;2.60;92.40;;;;;;5109015;28;20034;-56
2022/12/12 05:00:06;;;;;;;26.27;18.30;;;2.60;92.30;;;;;;5109582;28;20083;-57
2022/12/12 05:02:54;;;;;;;27.05;19.52;;;2.60;92.30;;;;;;5108884;28;20027;-56
2022/12/12 05:05:43;;;;;;;22.75;16.88;;;2.60;92.30;;;;;;5111725;28;20066;-57
2022/12/12 05:08:16;;;;;;;27.10;19.70;;;2.60;92.30;;;;;;5109067;28;20031;-56
2022/12/12 05:10:43;;;;;;;27.00;19.48;;;2.60;92.30;;;;;;5091041;28;20028;-57
2022/12/12 05:13:16;;;;;;;26.83;18.25;;;2.60;92.30;;;;;;5108905;28;20028;-56
2022/12/12 05:15:42;;;;;;;27.38;19.05;;;2.60;92.40;;;;;;5108819;28;20051;-56
2022/12/12 05:18:08;;;;;;;25.77;19.33;;;2.60;92.30;;;;;;5108876;28;20051;-56
2022/12/12 05:20:33;;;;;;;25.60;18.30;;;2.60;92.30;;;;;;5126997;28;20095;-56
2022/12/12 05:22:59;;;;;;;25.85;18.17;;;2.60;92.40;;;;;;5108499;28;20032;-57
2022/12/12 05:25:24;;;;;;;26.77;19.77;;;2.60;92.30;;;;;;5126936;28;20076;-56
2022/12/12 05:27:50;;;;;;;27.70;19.77;;;2.60;92.40;;;;;;5091541;28;20035;-56
2022/12/12 05:30:15;;;;;;;26.90;19.27;;;2.50;92.40;;;;;;5108628;28;20024;-56
2022/12/12 05:32:41;;;;;;;28.30;19.88;;;2.60;92.40;;;;;;5108714;28;20115;-56
2022/12/12 05:35:07;;;;;;;26.98;19.15;;;2.60;92.40;;;;;;5091183;28;20035;-57
2022/12/12 05:37:33;;;;;;;26.35;19.25;;;2.60;92.30;;;;;;5091545;28;20031;-57
2022/12/12 05:39:58;;;;;;;24.88;18.50;;;2.60;92.30;;;;;;5125280;28;20043;-56
2022/12/12 05:42:24;;;;;;;26.20;19.08;;;2.60;92.30;;;;;;5126658;28;20057;-56
2022/12/12 05:44:49;;;;;;;24.63;17.75;;;2.50;92.30;;;;;;5108216;28;20040;-57
2022/12/12 05:47:15;;;;;;;24.75;18.25;;;2.50;92.30;;;;;;5126569;28;20123;-56
2022/12/12 05:49:40;;;;;;;25.73;18.80;;;2.60;92.70;;;;;;5108094;28;20024;-56
2022/12/12 05:52:06;;;;;;;26.27;19.48;;;2.60;92.40;;;;;;5107914;28;20032;-57
2022/12/12 05:54:32;;;;;;;24.50;18.13;;;2.60;92.40;;;;;;5108069;28;20079;-57
2022/12/12 05:56:57;;;;;;;27.08;19.38;;;2.60;92.30;;;;;;5108062;28;20034;-56
2022/12/12 05:59:23;;;;;;;24.10;18.42;;;2.60;92.30;;;;;;5108185;28;20032;-56
2022/12/12 06:01:48;;;;;;;26.27;18.42;;;2.60;92.30;;;;;;5126346;28;20103;-56
2022/12/12 06:04:14;;;;;;;25.85;18.15;;;2.50;92.30;;;;;;5107720;28;20042;-55
2022/12/12 06:06:39;;;;;;;25.98;19.25;;;2.60;92.30;;;;;;5107717;28;20032;-56
2022/12/12 06:09:05;;;;;;;24.90;19.10;;;2.50;92.30;;;;;;5126019;28;20031;-57
2022/12/12 06:11:30;;;;;;;25.60;18.05;;;2.60;92.30;;;;;;5107753;28;20028;-57
2022/12/12 06:13:56;;;;;;;25.83;18.90;;;2.60;92.30;;;;;;5107706;28;20050;-56
2022/12/12 06:16:21;;;;;;;24.85;18.58;;;2.50;92.30;;;;;;5125911;28;20083;-56
2022/12/12 06:18:51;;;;;;;25.15;18.60;;;2.50;92.60;;;;;;5090584;28;20027;-57
2022/12/12 06:21:17;;;;;;;27.73;19.50;;;2.50;92.30;;;;;;5107406;28;20020;-56
2022/12/12 06:23:42;;;;;;;24.52;18.65;;;2.50;92.30;;;;;;5107647;28;20027;-56
2022/12/12 06:26:09;;;;;;;25.73;18.67;;;2.50;92.30;;;;;;5125840;28;20049;-57
2022/12/12 06:28:35;;;;;;;25.50;18.63;;;2.50;92.30;;;;;;5107563;28;20039;-57
2022/12/12 06:31:01;;;;;;;27.23;19.33;;;2.50;92.30;;;;;;5107407;28;20028;-57
2022/12/12 06:33:26;;;;;;;27.75;19.23;;;2.50;92.30;;;;;;5107379;28;20022;-56
2022/12/12 06:36:04;;;;;;;23.80;17.40;;;2.50;92.30;;;;;;5107146;28;20028;-57
2022/12/12 06:38:30;;;;;;;24.35;17.88;;;2.50;92.30;;;;;;5125542;28;20024;-56
2022/12/12 06:40:55;;;;;;;24.77;18.58;;;2.50;92.30;;;;;;5125415;28;20168;-56
2022/12/12 06:43:21;;;;;;;23.88;18.50;;;2.50;92.30;;;;;;5107327;28;20031;-57
2022/12/12 06:45:46;;;;;;;26.02;18.25;;;2.50;92.20;;;;;;5125529;28;20095;-57
2022/12/12 06:48:12;;;;;;;25.55;18.85;;;2.50;92.20;;;;;;5125506;28;20039;-56
2022/12/12 06:50:41;;;;;;;26.38;19.08;;;2.50;92.20;;;;;;5090139;28;20047;-56
2022/12/12 06:53:07;;;;;;;24.67;18.80;;;2.50;92.20;;;;;;5106925;28;20172;-57
2022/12/12 06:55:32;;;;;;;24.38;18.63;;;2.50;92.20;;;;;;5107048;28;20566;-57
2022/12/12 06:57:58;;;;;;;25.63;18.02;;;2.50;92.30;;;;;;5107240;28;20338;-56
2022/12/12 07:00:23;;;;;;;25.30;18.60;;;2.50;92.30;;;;;;5104860;28;20078;-57
2022/12/12 07:02:49;;;;;;;26.42;18.58;;;2.40;92.20;;;;;;5109128;28;20028;-57
2022/12/12 07:05:15;;;;;;;25.50;19.25;;;2.40;92.20;;;;;;5125044;28;20031;-56
2022/12/12 07:07:40;;;;;;;25.40;17.73;;;2.40;92.20;;;;;;5106714;28;20361;-56
2022/12/12 07:10:06;;;;;;;32.13;19.10;;;2.40;92.20;;;;;;5115219;28;20027;-57
2022/12/12 07:12:32;;;;;;;25.30;17.40;;;2.40;92.20;;;;;;5123363;28;20024;-57
2022/12/12 07:14:57;;;;;;;24.77;18.67;;;2.40;92.20;;;;;;5106750;28;20024;-56
2022/12/12 07:17:23;;;;;;;25.25;18.17;;;2.40;92.20;;;;;;5106211;28;20414;-57
2022/12/12 07:19:49;;;;;;;27.60;19.65;;;2.40;92.20;;;;;;5124332;28;20035;-57
2022/12/12 07:22:14;;;;;;;25.63;17.77;;;2.40;92.20;;;;;;5103072;28;20035;-57
2022/12/12 07:24:40;;;;;;;26.60;19.35;;;2.40;92.20;;;;;;5106816;28;20111;-57
2022/12/12 07:27:05;;;;;;;27.75;19.27;;;2.40;92.40;;;;;;5101774;28;20036;-57
2022/12/12 07:29:31;;;;;;;28.02;18.95;;;2.40;92.20;;;;;;5123228;28;20088;-57
2022/12/12 07:31:56;;;;;;;32.33;19.38;;;2.40;92.10;;;;;;5089658;28;20028;-57
2022/12/12 07:34:22;;;;;;;24.92;18.00;;;2.40;92.20;;;;;;5098241;28;20521;-57
2022/12/12 07:36:48;;;;;;;32.00;20.05;;;2.40;92.30;;;;;;5089058;28;20049;-57
2022/12/12 07:39:13;;;;;;;33.22;19.92;;;2.40;92.20;;;;;;5093450;28;20465;-57
2022/12/12 07:41:39;;;;;;;31.13;19.40;;;2.40;92.20;;;;;;5105675;28;20058;-57
2022/12/12 07:44:05;;;;;;;37.67;19.30;;;2.40;92.20;;;;;;5127117;28;20058;-57
2022/12/12 07:46:31;;;;;;;30.60;18.25;;;2.50;92.20;;;;;;5107143;28;20066;-56
2022/12/12 07:48:56;;;;;;;44.50;21.73;;;2.50;92.20;;;;;;5104667;28;20062;-57
2022/12/12 07:51:22;;;;;;;36.30;19.67;;;2.50;92.20;;;;;;5089169;28;20519;-57
2022/12/12 07:53:47;;;;;;;31.45;19.98;;;2.50;92.20;;;;;;5076034;28;20055;-57
2022/12/12 07:56:14;;;;;;;28.35;19.23;;;2.50;92.20;;;;;;5095057;28;20127;-57
2022/12/12 07:58:40;;;;;;;30.58;19.73;;;2.50;92.20;;;;;;5124693;28;20479;-57
2022/12/12 08:01:15;;;;;;;36.08;20.02;;;2.50;92.20;;;;;;5086788;28;20114;-57
2022/12/12 08:03:42;;;;;;;36.28;20.05;;;2.50;92.20;;;;;;5122887;28;20047;-57
2022/12/12 08:06:08;;;;;;;29.83;18.90;;;2.50;92.10;;;;;;5109233;28;20063;-57
2022/12/12 08:08:34;;;;;;;32.22;19.17;;;2.50;92.10;;;;;;5113147;28;20036;-57
2022/12/12 08:11:02;;;;;;;29.65;19.30;;;2.50;92.10;;;;;;5110266;28;20023;-57
2022/12/12 08:13:28;;;;;;;34.53;19.80;;;2.50;92.00;;;;;;5092336;28;20077;-57
2022/12/12 08:15:54;;;;;;;38.63;18.63;;;2.60;92.00;;;;;;5126377;28;20023;-57
2022/12/12 08:18:19;;;;;;;33.65;18.38;;;2.50;92.00;;;;;;5088668;28;20023;-57
2022/12/12 08:20:45;;;;;;;31.25;18.20;;;2.60;92.00;;;;;;5120029;28;20035;-57
2022/12/12 08:23:10;;;;;;;49.83;20.33;;;2.60;92.00;;;;;;5086432;28;20031;-57
2022/12/12 08:25:36;;;;;;;37.40;19.05;;;2.60;92.00;;;;;;5125978;28;20043;-57
2022/12/12 08:28:01;;;;;;;48.58;19.88;;;2.60;92.00;;;;;;5096678;28;20077;-57
2022/12/12 08:30:27;;;;;;;55.85;18.05;;;2.60;92.00;;;;;;5109374;28;20031;-57
2022/12/12 08:32:52;;;;;;;33.45;19.83;;;2.60;92.00;;;;;;5091482;28;20035;-57
2022/12/12 08:35:18;;;;;;;44.20;19.65;;;2.60;92.10;;;;;;5091358;28;20079;-57
2022/12/12 08:37:44;;;;;;;40.47;19.42;;;2.60;92.10;;;;;;5109422;28;20031;-57
2022/12/12 08:40:10;;;;;;;30.70;19.10;;;2.70;92.10;;;;;;5126564;28;20107;-57
2022/12/12 08:42:35;;;;;;;43.80;19.38;;;2.70;92.00;;;;;;5126997;28;20035;-57
2022/12/12 08:45:01;;;;;;;43.60;18.55;;;2.70;91.90;;;;;;5126676;28;20038;-57
2022/12/12 08:47:27;;;;;;;38.45;18.20;;;2.70;91.90;;;;;;5128029;28;20043;-57
2022/12/12 08:49:53;;;;;;;45.35;19.85;;;2.70;91.90;;;;;;5127485;28;20035;-57
2022/12/12 08:52:19;;;;;;;37.60;17.80;;;2.70;91.90;;;;;;5125083;28;20024;-57
2022/12/12 08:54:44;;;;;;;37.70;18.10;;;2.70;91.80;;;;;;5108558;28;20055;-57
2022/12/12 08:57:10;;;;;;;45.50;19.33;;;2.70;92.00;;;;;;5107850;28;20027;-57
2022/12/12 08:59:35;;;;;;;48.35;19.13;;;2.70;91.80;;;;;;5108729;28;20028;-57
2022/12/12 09:02:01;;;;;;;56.92;18.88;;;2.70;91.80;;;;;;5125541;28;20035;-57
2022/12/12 09:04:26;;;;;;;54.05;18.83;;;2.70;91.80;;;;;;5107283;28;20127;-57
2022/12/12 09:06:52;;;;;;;50.22;18.83;;;2.70;91.80;;;;;;5108536;28;20059;-57
2022/12/12 09:09:18;;;;;;;47.45;18.08;;;2.70;91.70;;;;;;5091595;28;20028;-57
2022/12/12 09:11:43;;;;;;;57.08;19.52;;;2.70;91.70;;;;;;5107890;28;20062;-57
2022/12/12 09:14:09;;;;;;;46.30;18.52;;;2.70;91.70;;;;;;5102929;28;20020;-57
2022/12/12 09:16:34;;;;;;;65.20;20.38;;;2.80;91.70;;;;;;5106690;28;20030;-57
2022/12/12 09:19:00;;;;;;;46.58;18.45;;;2.80;91.70;;;;;;5088468;28;20028;-57
2022/12/12 09:21:25;;;;;;;43.33;18.13;;;2.80;91.70;;;;;;5077653;28;20382;-57
2022/12/12 09:23:51;;;;;;;63.50;19.17;;;2.80;91.60;;;;;;5106383;28;20024;-57
2022/12/12 09:26:16;;;;;;;56.70;18.20;;;2.80;91.60;;;;;;5124523;28;20038;-56
2022/12/12 09:28:42;;;;;;;59.00;20.27;;;2.80;91.60;;;;;;5087805;28;20097;-57
2022/12/12 09:31:08;;;;;;;56.45;19.50;;;2.80;91.60;;;;;;5107715;28;20038;-57
2022/12/12 09:33:34;;;;;;;67.15;19.50;;;2.90;91.60;;;;;;5106970;28;20083;-57
2022/12/12 09:36:01;;;;;;;72.75;21.10;;;2.90;91.60;;;;;;5098022;28;20027;-57
2022/12/12 09:38:26;;;;;;;56.88;21.27;;;2.90;91.70;;;;;;5088484;28;20027;-57
2022/12/12 09:41:07;;;;;;;61.35;19.55;;;2.90;91.70;;;;;;5108026;28;20050;-57
2022/12/12 09:43:38;;;;;;;49.10;19.50;;;2.90;91.60;;;;;;5091840;28;20031;-57
2022/12/12 09:46:09;;;;;;;53.05;19.70;;;2.90;91.60;;;;;;5094545;28;20023;-57
2022/12/12 09:48:40;;;;;;;69.22;19.48;;;2.90;91.60;;;;;;5091232;28;20032;-57
2022/12/12 09:51:06;;;;;;;52.33;18.95;;;3.00;91.60;;;;;;5091076;28;20111;-57
2022/12/12 09:53:32;;;;;;;63.67;20.45;;;2.90;91.50;;;;;;5091188;28;20027;-57
2022/12/12 09:56:09;;;;;;;70.03;20.02;;;2.90;91.50;;;;;;5096212;28;20031;-57
2022/12/12 09:58:51;;;;;;;63.67;20.23;;;3.00;91.50;;;;;;5108063;28;20031;-57
2022/12/12 10:01:33;;;;;;;56.15;18.77;;;3.00;91.50;;;;;;5126226;28;20042;-57
2022/12/12 10:04:16;;;;;;;48.47;18.55;;;3.00;91.50;;;;;;5091463;28;20032;-57
2022/12/12 10:07:03;;;;;;;35.15;17.73;;;3.00;91.40;;;;;;5104137;28;20053;-56
2022/12/12 10:09:47;;;;;;;58.95;18.02;;;3.00;91.40;;;;;;5112696;28;20105;-57
2022/12/12 10:12:14;;;;;;;53.13;19.85;;;3.00;91.40;;;;;;5089061;28;20036;-57
2022/12/12 10:15:00;;;;;;;62.75;20.00;;;3.00;91.30;;;;;;5090514;28;20028;-57
2022/12/12 10:17:30;;;;;;;68.75;20.10;;;3.00;91.30;;;;;;5107398;28;20031;-57
2022/12/12 10:20:05;;;;;;;63.75;18.75;;;3.00;91.30;;;;;;5107340;28;20043;-57
2022/12/12 10:22:37;;;;;;;49.53;18.00;;;3.00;91.30;;;;;;5087393;28;20019;-57
2022/12/12 10:25:22;;;;;;;59.25;19.08;;;3.00;91.40;;;;;;5107430;28;20050;-57
2022/12/12 10:27:58;;;;;;;49.97;18.08;;;3.00;91.30;;;;;;5104173;28;20058;-57
2022/12/12 10:30:24;;;;;;;53.72;18.63;;;3.00;91.30;;;;;;5089738;28;20034;-57
2022/12/12 10:33:03;;;;;;;55.20;18.75;;;3.00;91.30;;;;;;5106449;28;20027;-57
2022/12/12 10:35:37;;;;;;;47.38;18.52;;;3.00;91.30;;;;;;5089314;28;20016;-57
2022/12/12 10:38:58;;;;;;;46.17;17.95;;;3.00;91.30;;;;;;5104457;28;20045;-57
2022/12/12 10:41:43;;;;;;;49.70;17.10;;;3.00;91.30;;;;;;5068211;28;20155;-57
2022/12/12 10:44:18;;;;;;;53.87;17.17;;;3.00;91.50;;;;;;5100273;28;20122;-57
2022/12/12 10:46:59;;;;;;;41.33;16.95;;;3.00;91.20;;;;;;5105955;28;20028;-57
2022/12/12 10:49:24;;;;;;;38.78;17.13;;;3.00;91.20;;;;;;5102905;28;20016;-57
2022/12/12 10:51:50;;;;;;;43.38;17.98;;;3.10;91.20;;;;;;5086221;28;20048;-57
2022/12/12 10:54:17;;;;;;;45.15;17.88;;;3.10;91.20;;;;;;5121782;28;20020;-57
2022/12/12 10:57:03;;;;;;;46.83;17.92;;;3.10;91.10;;;;;;5123275;28;20039;-57
2022/12/12 10:59:28;;;;;;;55.45;17.38;;;3.10;91.10;;;;;;5106502;28;20116;-57
2022/12/12 11:01:58;;;;;;;46.67;17.73;;;3.10;91.10;;;;;;5125052;28;20047;-57
2022/12/12 11:04:24;;;;;;;46.75;16.55;;;3.10;91.10;;;;;;5089566;28;20038;-57
2022/12/12 11:06:50;;;;;;;39.38;17.77;;;3.20;91.10;;;;;;5089094;28;20032;-57
2022/12/12 11:09:22;;;;;;;47.33;16.23;;;3.20;91.10;;;;;;5106070;28;20034;-57
2022/12/12 11:12:11;;;;;;;44.03;17.50;;;3.20;91.00;;;;;;5106335;28;20053;-57
2022/12/12 11:14:38;;;;;;;56.50;18.67;;;3.20;91.00;;;;;;5107300;28;20020;-57
2022/12/12 11:17:36;;;;;;;45.85;18.23;;;3.20;91.00;;;;;;5106870;28;20034;-57
2022/12/12 11:20:06;;;;;;;46.10;16.73;;;3.20;91.00;;;;;;5041087;28;20111;-57
2022/12/12 11:22:32;;;;;;;45.75;17.17;;;3.20;90.90;;;;;;5106623;28;20072;-57
2022/12/12 11:24:57;;;;;;;41.95;18.10;;;3.20;90.90;;;;;;5089431;28;20024;-57
2022/12/12 11:27:27;;;;;;;53.15;17.50;;;3.20;90.90;;;;;;5088639;28;20024;-57
2022/12/12 11:30:22;;;;;;;41.90;16.95;;;3.20;90.90;;;;;;5088219;28;20028;-57
2022/12/12 11:32:48;;;;;;;47.67;17.60;;;3.20;90.90;;;;;;5106526;28;20047;-57
2022/12/12 11:35:28;;;;;;;49.67;19.10;;;3.20;91.00;;;;;;5105238;28;20019;-57
2022/12/12 11:38:18;;;;;;;48.92;18.52;;;3.20;91.00;;;;;;5110804;28;20047;-57
2022/12/12 11:40:44;;;;;;;53.97;17.08;;;3.20;91.00;;;;;;5099759;28;20386;-57
2022/12/12 11:43:24;;;;;;;57.88;18.80;;;3.20;91.00;;;;;;5105546;28;20153;-57
2022/12/12 11:46:03;;;;;;;57.20;18.00;;;3.20;91.10;;;;;;5106158;28;20302;-57
2022/12/12 11:48:39;;;;;;;136.85;22.27;;;3.20;91.10;;;;;;5124371;28;20092;-57
2022/12/12 11:51:05;;;;;;;69.63;20.48;;;3.30;91.40;;;;;;5124290;28;20027;-57
2022/12/12 11:53:33;;;;;;;84.78;21.20;;;3.20;91.10;;;;;;5105401;28;20042;-57
2022/12/12 11:56:11;;;;;;;49.53;18.27;;;3.30;91.10;;;;;;5096003;28;20103;-57
2022/12/12 11:58:54;;;;;;;84.05;19.08;;;3.30;91.10;;;;;;5131122;28;20064;-57
2022/12/12 12:01:32;;;;;;;58.97;17.20;;;3.30;91.00;;;;;;5106157;28;20307;-57
2022/12/12 12:04:16;;;;;;;61.60;19.63;;;3.30;91.00;;;;;;5106118;28;20032;-57
2022/12/12 12:07:03;;;;;;;62.72;18.95;;;3.40;91.00;;;;;;5103057;28;20083;-57
2022/12/12 12:09:35;;;;;;;96.40;21.00;;;3.40;91.10;;;;;;5123213;28;20031;-57
2022/12/12 12:12:14;;;;;;;70.25;19.42;;;3.40;91.00;;;;;;5088692;28;20016;-57
2022/12/12 12:15:18;;;;;;;56.38;18.23;;;3.40;90.90;;;;;;5102050;28;20101;-57
2022/12/12 12:17:51;;;;;;;60.63;18.15;;;3.40;90.90;;;;;;5088350;28;20044;-57
2022/12/12 12:20:22;;;;;;;48.70;16.90;;;3.40;90.90;;;;;;5089715;27;20020;-57
2022/12/12 12:23:00;;;;;;;58.88;19.25;;;3.40;90.80;;;;;;5100641;28;20643;-57
2022/12/12 12:25:34;;;;;;;54.13;18.88;;;3.90;90.90;;;;;;5110908;27;20106;-57
2022/12/12 12:28:00;;;;;;;69.93;19.17;;;3.50;90.80;;;;;;5114458;28;20057;-57
2022/12/12 12:31:08;;;;;;;67.20;19.85;;;3.40;90.80;;;;;;5127216;28;20020;-57
2022/12/12 12:33:57;;;;;;;83.38;20.63;;;3.40;90.80;;;;;;5089659;28;20122;-57
2022/12/12 12:36:52;;;;;;;62.25;17.80;;;3.50;90.80;;;;;;5112024;28;20028;-57
2022/12/12 12:39:37;;;;;;;69.80;17.98;;;3.50;90.80;;;;;;5110491;28;20027;-57
2022/12/12 12:42:15;;;;;;;68.18;18.95;;;3.40;90.70;;;;;;5109496;28;20158;-57
2022/12/12 12:44:56;;;;;;;57.22;17.85;;;3.50;90.70;;;;;;5126102;27;20031;-57
2022/12/12 12:47:41;;;;;;;60.67;17.02;;;3.50;90.70;;;;;;5106905;28;20115;-57
2022/12/12 12:50:31;;;;;;;56.92;16.92;;;3.40;90.60;;;;;;5108717;28;20023;-57
2022/12/12 12:53:13;;;;;;;61.55;18.30;;;3.50;90.70;;;;;;5108921;27;20035;-57
2022/12/12 12:55:42;;;;;;;57.63;18.40;;;3.40;90.60;;;;;;5106275;28;20024;-57
2022/12/12 12:58:13;;;;;;;37.08;16.73;;;3.40;90.60;;;;;;5111526;28;20035;-57
2022/12/12 13:00:38;;;;;;;69.25;18.27;;;3.40;90.60;;;;;;5125480;28;20028;-57
2022/12/12 13:03:17;;;;;;;55.28;17.60;;;3.50;90.50;;;;;;5126023;28;20024;-57
2022/12/12 13:05:49;;;;;;;48.28;17.25;;;3.50;90.50;;;;;;5113857;28;20485;-57
2022/12/12 13:08:30;;;;;;;55.45;17.98;;;3.40;90.50;;;;;;5106854;28;20057;-57
2022/12/12 13:11:41;;;;;;;48.63;17.80;;;3.50;90.50;;;;;;5108721;28;20028;-57